sensor_id;sensor_type;location;lat;lon;timestamp;P1;durP1;ratioP1;P2;durP2;ratioP2
13816;SDS011;6979;52.116;5.286;2022-07-17T00:01:12;1.60;;;1.50;;
13816;SDS011;6979;52.116;5.286;2022-07-17T00:03:39;1.63;;;1.50;;
13816;SDS011;6979;52.116;5.286;2022-07-17T00:06:07;2.53;;;2.00;;
13816;SDS011;6979;52.116;5.286;2022-07-17T00:08:33;1.73;;;1.63;;
13816;SDS011;6979;52.116;5.286;2022-07-17T00:11:00;3.43;;;2.00;;
13816;SDS011;6979;52.116;5.286;2022-07-17T00:13:29;1.53;;;1.43;;
13816;SDS011;6979;52.116;5.286;2022-07-17T00:15:56;5.13;;;1.60;;
13816;SDS011;6979;52.116;5.286;2022-07-17T00:18:23;1.40;;;1.30;;
13816;SDS011;6979;52.116;5.286;2022-07-17T00:20:50;2.03;;;1.73;;
13816;SDS011;6979;52.116;5.286;2022-07-17T00:23:17;1.43;;;1.30;;
13816;SDS011;6979;52.116;5.286;2022-07-17T00:25:44;1.87;;;1.50;;
13816;SDS011;6979;52.116;5.286;2022-07-17T00:28:11;2.20;;;1.43;;
13816;SDS011;6979;52.116;5.286;2022-07-17T00:30:40;1.67;;;1.57;;
13816;SDS011;6979;52.116;5.286;2022-07-17T00:33:06;1.37;;;1.27;;
13816;SDS011;6979;52.116;5.286;2022-07-17T00:35:33;2.20;;;1.50;;
13816;SDS011;6979;52.116;5.286;2022-07-17T00:38:00;1.10;;;1.10;;
13816;SDS011;6979;52.116;5.286;2022-07-17T00:40:27;1.07;;;1.00;;
13816;SDS011;6979;52.116;5.286;2022-07-17T00:42:53;1.20;;;1.10;;
13816;SDS011;6979;52.116;5.286;2022-07-17T00:45:20;1.80;;;1.00;;
13816;SDS011;6979;52.116;5.286;2022-07-17T00:47:52;1.10;;;1.10;;
13816;SDS011;6979;52.116;5.286;2022-07-17T00:50:21;1.33;;;1.23;;
13816;SDS011;6979;52.116;5.286;2022-07-17T00:52:49;1.50;;;1.40;;
13816;SDS011;6979;52.116;5.286;2022-07-17T00:55:16;1.20;;;1.10;;
13816;SDS011;6979;52.116;5.286;2022-07-17T00:57:45;1.00;;;1.00;;
13816;SDS011;6979;52.116;5.286;2022-07-17T01:00:14;1.20;;;1.10;;
13816;SDS011;6979;52.116;5.286;2022-07-17T01:02:43;1.57;;;1.50;;
13816;SDS011;6979;52.116;5.286;2022-07-17T01:05:13;1.57;;;1.30;;
13816;SDS011;6979;52.116;5.286;2022-07-17T01:07:40;1.33;;;1.20;;
13816;SDS011;6979;52.116;5.286;2022-07-17T01:10:07;1.07;;;1.07;;
13816;SDS011;6979;52.116;5.286;2022-07-17T01:12:35;3.20;;;1.30;;
13816;SDS011;6979;52.116;5.286;2022-07-17T01:15:02;1.37;;;1.27;;
13816;SDS011;6979;52.116;5.286;2022-07-17T01:17:30;1.00;;;1.00;;
13816;SDS011;6979;52.116;5.286;2022-07-17T01:19:57;1.47;;;1.37;;
13816;SDS011;6979;52.116;5.286;2022-07-17T01:22:25;2.77;;;1.37;;
13816;SDS011;6979;52.116;5.286;2022-07-17T01:24:52;1.33;;;1.23;;
13816;SDS011;6979;52.116;5.286;2022-07-17T01:27:19;1.73;;;1.40;;
13816;SDS011;6979;52.116;5.286;2022-07-17T01:29:45;1.57;;;1.47;;
13816;SDS011;6979;52.116;5.286;2022-07-17T01:32:12;1.03;;;1.00;;
13816;SDS011;6979;52.116;5.286;2022-07-17T01:34:39;1.27;;;1.27;;
13816;SDS011;6979;52.116;5.286;2022-07-17T01:37:06;1.23;;;1.13;;
13816;SDS011;6979;52.116;5.286;2022-07-17T01:39:34;1.50;;;1.40;;
13816;SDS011;6979;52.116;5.286;2022-07-17T01:42:19;1.43;;;1.17;;
13816;SDS011;6979;52.116;5.286;2022-07-17T01:44:46;1.30;;;1.20;;
13816;SDS011;6979;52.116;5.286;2022-07-17T01:47:13;2.07;;;1.30;;
13816;SDS011;6979;52.116;5.286;2022-07-17T01:49:42;1.13;;;1.13;;
13816;SDS011;6979;52.116;5.286;2022-07-17T01:52:10;1.03;;;1.00;;
13816;SDS011;6979;52.116;5.286;2022-07-17T01:54:38;1.23;;;1.17;;
13816;SDS011;6979;52.116;5.286;2022-07-17T01:57:05;1.23;;;1.10;;
13816;SDS011;6979;52.116;5.286;2022-07-17T01:59:32;1.30;;;1.20;;
13816;SDS011;6979;52.116;5.286;2022-07-17T02:01:59;1.47;;;1.20;;
13816;SDS011;6979;52.116;5.286;2022-07-17T02:04:26;1.37;;;1.10;;
13816;SDS011;6979;52.116;5.286;2022-07-17T02:06:53;2.10;;;1.40;;
13816;SDS011;6979;52.116;5.286;2022-07-17T02:09:21;1.67;;;1.33;;
13816;SDS011;6979;52.116;5.286;2022-07-17T02:11:49;1.10;;;1.03;;
13816;SDS011;6979;52.116;5.286;2022-07-17T02:14:16;1.50;;;1.40;;
13816;SDS011;6979;52.116;5.286;2022-07-17T02:16:43;1.23;;;1.00;;
13816;SDS011;6979;52.116;5.286;2022-07-17T02:19:10;1.10;;;1.10;;
13816;SDS011;6979;52.116;5.286;2022-07-17T02:21:37;1.10;;;1.10;;
13816;SDS011;6979;52.116;5.286;2022-07-17T02:24:05;2.50;;;1.23;;
13816;SDS011;6979;52.116;5.286;2022-07-17T02:26:32;1.30;;;1.20;;
13816;SDS011;6979;52.116;5.286;2022-07-17T02:29:00;2.93;;;1.20;;
13816;SDS011;6979;52.116;5.286;2022-07-17T02:31:27;1.23;;;1.13;;
13816;SDS011;6979;52.116;5.286;2022-07-17T02:33:53;1.17;;;1.17;;
13816;SDS011;6979;52.116;5.286;2022-07-17T02:36:20;1.10;;;1.00;;
13816;SDS011;6979;52.116;5.286;2022-07-17T02:38:47;1.63;;;1.37;;
13816;SDS011;6979;52.116;5.286;2022-07-17T02:41:14;1.67;;;1.10;;
13816;SDS011;6979;52.116;5.286;2022-07-17T02:43:42;1.33;;;1.27;;
13816;SDS011;6979;52.116;5.286;2022-07-17T02:46:10;1.47;;;1.10;;
13816;SDS011;6979;52.116;5.286;2022-07-17T02:48:38;1.27;;;1.17;;
13816;SDS011;6979;52.116;5.286;2022-07-17T02:51:05;1.30;;;1.20;;
13816;SDS011;6979;52.116;5.286;2022-07-17T02:53:32;1.20;;;1.10;;
13816;SDS011;6979;52.116;5.286;2022-07-17T02:55:59;1.30;;;1.27;;
13816;SDS011;6979;52.116;5.286;2022-07-17T02:58:25;1.50;;;1.40;;
13816;SDS011;6979;52.116;5.286;2022-07-17T03:00:52;1.23;;;1.23;;
13816;SDS011;6979;52.116;5.286;2022-07-17T03:03:20;1.03;;;1.00;;
13816;SDS011;6979;52.116;5.286;2022-07-17T03:05:47;0.90;;;0.90;;
13816;SDS011;6979;52.116;5.286;2022-07-17T03:08:14;1.67;;;1.53;;
13816;SDS011;6979;52.116;5.286;2022-07-17T03:10:41;1.20;;;1.10;;
13816;SDS011;6979;52.116;5.286;2022-07-17T03:13:08;1.23;;;1.13;;
13816;SDS011;6979;52.116;5.286;2022-07-17T03:15:34;1.10;;;1.07;;
13816;SDS011;6979;52.116;5.286;2022-07-17T03:18:01;1.43;;;1.33;;
13816;SDS011;6979;52.116;5.286;2022-07-17T03:20:30;1.43;;;1.10;;
13816;SDS011;6979;52.116;5.286;2022-07-17T03:22:56;1.43;;;1.33;;
13816;SDS011;6979;52.116;5.286;2022-07-17T03:25:23;1.10;;;1.00;;
13816;SDS011;6979;52.116;5.286;2022-07-17T03:27:50;1.77;;;1.23;;
13816;SDS011;6979;52.116;5.286;2022-07-17T03:30:17;2.20;;;1.10;;
13816;SDS011;6979;52.116;5.286;2022-07-17T03:32:43;1.00;;;0.97;;
13816;SDS011;6979;52.116;5.286;2022-07-17T03:35:10;1.73;;;1.30;;
13816;SDS011;6979;52.116;5.286;2022-07-17T03:37:38;1.13;;;1.10;;
13816;SDS011;6979;52.116;5.286;2022-07-17T03:40:06;1.23;;;1.13;;
13816;SDS011;6979;52.116;5.286;2022-07-17T03:42:33;1.03;;;0.90;;
13816;SDS011;6979;52.116;5.286;2022-07-17T03:45:00;1.60;;;1.50;;
13816;SDS011;6979;52.116;5.286;2022-07-17T03:47:27;0.90;;;0.90;;
13816;SDS011;6979;52.116;5.286;2022-07-17T03:49:54;1.33;;;0.97;;
13816;SDS011;6979;52.116;5.286;2022-07-17T03:52:21;1.93;;;1.20;;
13816;SDS011;6979;52.116;5.286;2022-07-17T03:54:49;2.00;;;1.47;;
13816;SDS011;6979;52.116;5.286;2022-07-17T03:57:15;1.23;;;1.13;;
13816;SDS011;6979;52.116;5.286;2022-07-17T03:59:42;1.33;;;1.23;;
13816;SDS011;6979;52.116;5.286;2022-07-17T04:02:09;1.33;;;1.20;;
13816;SDS011;6979;52.116;5.286;2022-07-17T04:04:36;1.40;;;1.30;;
13816;SDS011;6979;52.116;5.286;2022-07-17T04:07:03;1.40;;;1.30;;
13816;SDS011;6979;52.116;5.286;2022-07-17T04:09:29;1.10;;;1.00;;
13816;SDS011;6979;52.116;5.286;2022-07-17T04:11:57;1.63;;;1.40;;
13816;SDS011;6979;52.116;5.286;2022-07-17T04:14:24;1.73;;;1.33;;
13816;SDS011;6979;52.116;5.286;2022-07-17T04:16:51;1.07;;;1.07;;
13816;SDS011;6979;52.116;5.286;2022-07-17T04:19:18;1.30;;;1.20;;
13816;SDS011;6979;52.116;5.286;2022-07-17T04:21:44;1.17;;;1.10;;
13816;SDS011;6979;52.116;5.286;2022-07-17T04:24:11;1.17;;;1.17;;
13816;SDS011;6979;52.116;5.286;2022-07-17T04:26:38;1.33;;;1.23;;
13816;SDS011;6979;52.116;5.286;2022-07-17T04:29:06;1.30;;;1.20;;
13816;SDS011;6979;52.116;5.286;2022-07-17T04:31:33;2.83;;;1.60;;
13816;SDS011;6979;52.116;5.286;2022-07-17T04:34:00;1.00;;;1.00;;
13816;SDS011;6979;52.116;5.286;2022-07-17T04:36:26;1.23;;;1.13;;
13816;SDS011;6979;52.116;5.286;2022-07-17T04:38:53;1.13;;;1.10;;
13816;SDS011;6979;52.116;5.286;2022-07-17T04:41:20;1.33;;;1.27;;
13816;SDS011;6979;52.116;5.286;2022-07-17T04:43:48;1.30;;;1.20;;
13816;SDS011;6979;52.116;5.286;2022-07-17T04:46:16;1.20;;;1.10;;
13816;SDS011;6979;52.116;5.286;2022-07-17T04:48:42;1.30;;;1.20;;
13816;SDS011;6979;52.116;5.286;2022-07-17T04:51:09;1.10;;;1.00;;
13816;SDS011;6979;52.116;5.286;2022-07-17T04:53:36;1.80;;;1.57;;
13816;SDS011;6979;52.116;5.286;2022-07-17T04:56:03;2.57;;;1.77;;
13816;SDS011;6979;52.116;5.286;2022-07-17T04:58:30;2.20;;;1.40;;
13816;SDS011;6979;52.116;5.286;2022-07-17T05:00:57;1.63;;;1.13;;
13816;SDS011;6979;52.116;5.286;2022-07-17T05:03:25;1.10;;;1.00;;
13816;SDS011;6979;52.116;5.286;2022-07-17T05:05:52;1.20;;;1.20;;
13816;SDS011;6979;52.116;5.286;2022-07-17T05:08:19;1.03;;;1.03;;
13816;SDS011;6979;52.116;5.286;2022-07-17T05:10:46;1.70;;;1.60;;
13816;SDS011;6979;52.116;5.286;2022-07-17T05:13:13;1.57;;;1.33;;
13816;SDS011;6979;52.116;5.286;2022-07-17T05:15:39;2.40;;;1.43;;
13816;SDS011;6979;52.116;5.286;2022-07-17T05:18:06;1.33;;;1.23;;
13816;SDS011;6979;52.116;5.286;2022-07-17T05:20:35;1.80;;;1.30;;
13816;SDS011;6979;52.116;5.286;2022-07-17T05:23:02;1.63;;;1.53;;
13816;SDS011;6979;52.116;5.286;2022-07-17T05:25:29;2.97;;;1.60;;
13816;SDS011;6979;52.116;5.286;2022-07-17T05:27:56;2.10;;;1.90;;
13816;SDS011;6979;52.116;5.286;2022-07-17T05:30:22;2.10;;;1.73;;
13816;SDS011;6979;52.116;5.286;2022-07-17T05:32:49;2.07;;;1.93;;
13816;SDS011;6979;52.116;5.286;2022-07-17T05:35:16;2.00;;;1.80;;
13816;SDS011;6979;52.116;5.286;2022-07-17T05:37:44;1.87;;;1.70;;
13816;SDS011;6979;52.116;5.286;2022-07-17T05:40:11;2.00;;;1.80;;
13816;SDS011;6979;52.116;5.286;2022-07-17T05:42:38;3.03;;;2.00;;
13816;SDS011;6979;52.116;5.286;2022-07-17T05:45:05;1.90;;;1.80;;
13816;SDS011;6979;52.116;5.286;2022-07-17T05:47:33;1.57;;;1.47;;
13816;SDS011;6979;52.116;5.286;2022-07-17T05:50:00;3.13;;;1.83;;
13816;SDS011;6979;52.116;5.286;2022-07-17T05:52:27;2.10;;;1.53;;
13816;SDS011;6979;52.116;5.286;2022-07-17T05:54:55;2.00;;;1.53;;
13816;SDS011;6979;52.116;5.286;2022-07-17T05:57:21;1.57;;;1.47;;
13816;SDS011;6979;52.116;5.286;2022-07-17T05:59:48;1.00;;;1.00;;
13816;SDS011;6979;52.116;5.286;2022-07-17T06:02:15;4.27;;;1.50;;
13816;SDS011;6979;52.116;5.286;2022-07-17T06:04:42;1.90;;;1.60;;
13816;SDS011;6979;52.116;5.286;2022-07-17T06:07:08;2.23;;;1.40;;
13816;SDS011;6979;52.116;5.286;2022-07-17T06:09:35;1.90;;;1.40;;
13816;SDS011;6979;52.116;5.286;2022-07-17T06:12:04;1.17;;;1.00;;
13816;SDS011;6979;52.116;5.286;2022-07-17T06:14:31;1.97;;;1.50;;
13816;SDS011;6979;52.116;5.286;2022-07-17T06:16:57;3.20;;;1.47;;
13816;SDS011;6979;52.116;5.286;2022-07-17T06:19:24;4.00;;;1.53;;
13816;SDS011;6979;52.116;5.286;2022-07-17T06:21:51;2.10;;;1.60;;
13816;SDS011;6979;52.116;5.286;2022-07-17T06:24:18;2.10;;;1.60;;
13816;SDS011;6979;52.116;5.286;2022-07-17T06:26:45;2.73;;;1.13;;
13816;SDS011;6979;52.116;5.286;2022-07-17T06:29:13;2.10;;;1.20;;
13816;SDS011;6979;52.116;5.286;2022-07-17T06:31:40;2.20;;;1.30;;
13816;SDS011;6979;52.116;5.286;2022-07-17T06:34:06;1.63;;;1.33;;
13816;SDS011;6979;52.116;5.286;2022-07-17T06:36:33;2.23;;;1.77;;
13816;SDS011;6979;52.116;5.286;2022-07-17T06:39:00;1.50;;;1.33;;
13816;SDS011;6979;52.116;5.286;2022-07-17T06:41:27;1.07;;;0.97;;
13816;SDS011;6979;52.116;5.286;2022-07-17T06:43:54;1.13;;;1.10;;
13816;SDS011;6979;52.116;5.286;2022-07-17T06:46:22;2.80;;;1.67;;
13816;SDS011;6979;52.116;5.286;2022-07-17T06:48:48;1.73;;;1.20;;
13816;SDS011;6979;52.116;5.286;2022-07-17T06:51:16;1.50;;;1.40;;
13816;SDS011;6979;52.116;5.286;2022-07-17T06:53:43;2.50;;;1.80;;
13816;SDS011;6979;52.116;5.286;2022-07-17T06:56:10;3.50;;;1.40;;
13816;SDS011;6979;52.116;5.286;2022-07-17T06:58:37;3.93;;;1.57;;
13816;SDS011;6979;52.116;5.286;2022-07-17T07:01:04;2.87;;;1.20;;
13816;SDS011;6979;52.116;5.286;2022-07-17T07:03:32;1.47;;;1.10;;
13816;SDS011;6979;52.116;5.286;2022-07-17T07:05:58;2.47;;;1.10;;
13816;SDS011;6979;52.116;5.286;2022-07-17T07:08:25;1.73;;;1.30;;
13816;SDS011;6979;52.116;5.286;2022-07-17T07:10:52;2.83;;;1.43;;
13816;SDS011;6979;52.116;5.286;2022-07-17T07:13:19;3.10;;;1.07;;
13816;SDS011;6979;52.116;5.286;2022-07-17T07:15:46;1.83;;;1.53;;
13816;SDS011;6979;52.116;5.286;2022-07-17T07:18:13;3.20;;;1.30;;
13816;SDS011;6979;52.116;5.286;2022-07-17T07:20:41;1.27;;;1.13;;
13816;SDS011;6979;52.116;5.286;2022-07-17T07:23:07;1.27;;;1.17;;
13816;SDS011;6979;52.116;5.286;2022-07-17T07:25:35;1.90;;;1.80;;
13816;SDS011;6979;52.116;5.286;2022-07-17T07:28:02;1.50;;;1.40;;
13816;SDS011;6979;52.116;5.286;2022-07-17T07:30:29;2.47;;;1.70;;
13816;SDS011;6979;52.116;5.286;2022-07-17T07:32:56;2.97;;;1.40;;
13816;SDS011;6979;52.116;5.286;2022-07-17T07:35:23;1.50;;;1.40;;
13816;SDS011;6979;52.116;5.286;2022-07-17T07:37:51;1.70;;;1.60;;
13816;SDS011;6979;52.116;5.286;2022-07-17T07:40:18;2.17;;;1.47;;
13816;SDS011;6979;52.116;5.286;2022-07-17T07:42:45;1.40;;;1.30;;
13816;SDS011;6979;52.116;5.286;2022-07-17T07:45:12;2.80;;;1.20;;
13816;SDS011;6979;52.116;5.286;2022-07-17T07:47:42;0.93;;;0.93;;
13816;SDS011;6979;52.116;5.286;2022-07-17T07:50:10;1.50;;;1.40;;
13816;SDS011;6979;52.116;5.286;2022-07-17T07:52:38;1.90;;;1.30;;
13816;SDS011;6979;52.116;5.286;2022-07-17T07:55:07;1.17;;;1.07;;
13816;SDS011;6979;52.116;5.286;2022-07-17T07:57:35;1.60;;;1.50;;
13816;SDS011;6979;52.116;5.286;2022-07-17T08:00:02;0.93;;;0.90;;
13816;SDS011;6979;52.116;5.286;2022-07-17T08:02:38;1.87;;;1.30;;
13816;SDS011;6979;52.116;5.286;2022-07-17T08:05:05;1.83;;;1.30;;
13816;SDS011;6979;52.116;5.286;2022-07-17T08:07:33;2.60;;;1.50;;
13816;SDS011;6979;52.116;5.286;2022-07-17T08:10:01;0.90;;;0.90;;
13816;SDS011;6979;52.116;5.286;2022-07-17T08:12:31;2.93;;;1.00;;
13816;SDS011;6979;52.116;5.286;2022-07-17T08:14:58;1.10;;;1.00;;
13816;SDS011;6979;52.116;5.286;2022-07-17T08:17:24;0.83;;;0.83;;
13816;SDS011;6979;52.116;5.286;2022-07-17T08:19:51;1.13;;;1.03;;
13816;SDS011;6979;52.116;5.286;2022-07-17T08:22:18;1.63;;;1.47;;
13816;SDS011;6979;52.116;5.286;2022-07-17T08:24:44;0.90;;;0.87;;
13816;SDS011;6979;52.116;5.286;2022-07-17T08:27:11;2.23;;;1.50;;
13816;SDS011;6979;52.116;5.286;2022-07-17T08:29:39;0.90;;;0.90;;
13816;SDS011;6979;52.116;5.286;2022-07-17T08:32:06;1.07;;;1.00;;
13816;SDS011;6979;52.116;5.286;2022-07-17T08:34:33;1.43;;;1.10;;
13816;SDS011;6979;52.116;5.286;2022-07-17T08:37:00;1.43;;;1.33;;
13816;SDS011;6979;52.116;5.286;2022-07-17T08:39:26;1.67;;;1.57;;
13816;SDS011;6979;52.116;5.286;2022-07-17T08:41:53;1.20;;;1.10;;
13816;SDS011;6979;52.116;5.286;2022-07-17T08:44:20;1.23;;;1.17;;
13816;SDS011;6979;52.116;5.286;2022-07-17T08:46:48;1.20;;;1.07;;
13816;SDS011;6979;52.116;5.286;2022-07-17T08:49:15;1.83;;;1.10;;
13816;SDS011;6979;52.116;5.286;2022-07-17T08:51:47;1.17;;;1.07;;
13816;SDS011;6979;52.116;5.286;2022-07-17T08:54:14;2.00;;;1.23;;
13816;SDS011;6979;52.116;5.286;2022-07-17T08:56:41;1.40;;;1.30;;
13816;SDS011;6979;52.116;5.286;2022-07-17T08:59:08;0.97;;;0.93;;
13816;SDS011;6979;52.116;5.286;2022-07-17T09:01:35;1.47;;;1.37;;
13816;SDS011;6979;52.116;5.286;2022-07-17T09:04:04;0.70;;;0.70;;
13816;SDS011;6979;52.116;5.286;2022-07-17T09:06:32;1.50;;;1.00;;
13816;SDS011;6979;52.116;5.286;2022-07-17T09:09:01;1.07;;;1.00;;
13816;SDS011;6979;52.116;5.286;2022-07-17T09:11:28;0.93;;;0.90;;
13816;SDS011;6979;52.116;5.286;2022-07-17T09:13:55;2.40;;;0.80;;
13816;SDS011;6979;52.116;5.286;2022-07-17T09:16:22;1.43;;;1.20;;
13816;SDS011;6979;52.116;5.286;2022-07-17T09:18:50;0.73;;;0.73;;
13816;SDS011;6979;52.116;5.286;2022-07-17T09:21:21;1.90;;;1.10;;
13816;SDS011;6979;52.116;5.286;2022-07-17T09:23:58;0.97;;;0.90;;
13816;SDS011;6979;52.116;5.286;2022-07-17T09:26:26;1.43;;;1.27;;
13816;SDS011;6979;52.116;5.286;2022-07-17T09:28:54;0.80;;;0.80;;
13816;SDS011;6979;52.116;5.286;2022-07-17T09:31:24;1.23;;;1.20;;
13816;SDS011;6979;52.116;5.286;2022-07-17T09:33:52;1.30;;;1.20;;
13816;SDS011;6979;52.116;5.286;2022-07-17T09:36:19;1.17;;;1.00;;
13816;SDS011;6979;52.116;5.286;2022-07-17T09:38:48;1.33;;;1.03;;
13816;SDS011;6979;52.116;5.286;2022-07-17T09:41:18;1.07;;;1.00;;
13816;SDS011;6979;52.116;5.286;2022-07-17T09:43:46;1.23;;;1.13;;
13816;SDS011;6979;52.116;5.286;2022-07-17T09:46:19;1.23;;;1.00;;
13816;SDS011;6979;52.116;5.286;2022-07-17T09:48:47;1.33;;;1.23;;
13816;SDS011;6979;52.116;5.286;2022-07-17T09:51:16;1.10;;;1.00;;
13816;SDS011;6979;52.116;5.286;2022-07-17T09:53:47;1.10;;;1.00;;
13816;SDS011;6979;52.116;5.286;2022-07-17T09:56:15;1.30;;;1.20;;
13816;SDS011;6979;52.116;5.286;2022-07-17T09:58:45;2.40;;;1.20;;
13816;SDS011;6979;52.116;5.286;2022-07-17T10:01:13;1.03;;;1.00;;
13816;SDS011;6979;52.116;5.286;2022-07-17T10:03:41;1.07;;;0.90;;
13816;SDS011;6979;52.116;5.286;2022-07-17T10:06:08;1.37;;;1.27;;
13816;SDS011;6979;52.116;5.286;2022-07-17T10:08:36;1.37;;;1.27;;
13816;SDS011;6979;52.116;5.286;2022-07-17T10:11:04;1.33;;;1.23;;
13816;SDS011;6979;52.116;5.286;2022-07-17T10:13:32;1.97;;;1.50;;
13816;SDS011;6979;52.116;5.286;2022-07-17T10:16:01;2.23;;;1.40;;
13816;SDS011;6979;52.116;5.286;2022-07-17T10:18:35;1.23;;;1.17;;
13816;SDS011;6979;52.116;5.286;2022-07-17T10:21:11;1.37;;;1.23;;
13816;SDS011;6979;52.116;5.286;2022-07-17T10:23:40;1.30;;;1.20;;
13816;SDS011;6979;52.116;5.286;2022-07-17T10:26:09;1.43;;;1.33;;
13816;SDS011;6979;52.116;5.286;2022-07-17T10:28:40;1.43;;;1.30;;
13816;SDS011;6979;52.116;5.286;2022-07-17T10:31:08;1.10;;;1.10;;
13816;SDS011;6979;52.116;5.286;2022-07-17T10:33:35;1.33;;;1.30;;
13816;SDS011;6979;52.116;5.286;2022-07-17T10:36:03;1.27;;;1.27;;
13816;SDS011;6979;52.116;5.286;2022-07-17T10:38:40;1.63;;;1.53;;
13816;SDS011;6979;52.116;5.286;2022-07-17T10:41:09;1.67;;;1.50;;
13816;SDS011;6979;52.116;5.286;2022-07-17T10:43:47;1.93;;;1.60;;
13816;SDS011;6979;52.116;5.286;2022-07-17T10:46:15;1.47;;;1.37;;
13816;SDS011;6979;52.116;5.286;2022-07-17T10:48:46;1.43;;;1.30;;
13816;SDS011;6979;52.116;5.286;2022-07-17T10:51:14;1.50;;;1.23;;
13816;SDS011;6979;52.116;5.286;2022-07-17T10:53:42;1.40;;;1.30;;
13816;SDS011;6979;52.116;5.286;2022-07-17T10:56:10;1.77;;;1.67;;
13816;SDS011;6979;52.116;5.286;2022-07-17T10:58:38;2.10;;;1.50;;
13816;SDS011;6979;52.116;5.286;2022-07-17T11:01:07;1.57;;;1.47;;
13816;SDS011;6979;52.116;5.286;2022-07-17T11:03:38;1.40;;;1.30;;
13816;SDS011;6979;52.116;5.286;2022-07-17T11:06:12;1.83;;;1.73;;
13816;SDS011;6979;52.116;5.286;2022-07-17T11:08:41;1.60;;;1.50;;
13816;SDS011;6979;52.116;5.286;2022-07-17T11:11:11;1.53;;;1.43;;
13816;SDS011;6979;52.116;5.286;2022-07-17T11:13:39;2.30;;;1.93;;
13816;SDS011;6979;52.116;5.286;2022-07-17T11:16:05;1.70;;;1.60;;
13816;SDS011;6979;52.116;5.286;2022-07-17T11:18:32;2.20;;;1.40;;
13816;SDS011;6979;52.116;5.286;2022-07-17T11:21:01;1.90;;;1.80;;
13816;SDS011;6979;52.116;5.286;2022-07-17T11:23:31;1.70;;;1.60;;
13816;SDS011;6979;52.116;5.286;2022-07-17T11:25:59;1.60;;;1.50;;
13816;SDS011;6979;52.116;5.286;2022-07-17T11:28:33;1.60;;;1.50;;
13816;SDS011;6979;52.116;5.286;2022-07-17T11:31:03;1.70;;;1.60;;
13816;SDS011;6979;52.116;5.286;2022-07-17T11:33:45;1.70;;;1.50;;
13816;SDS011;6979;52.116;5.286;2022-07-17T11:36:20;1.97;;;1.87;;
13816;SDS011;6979;52.116;5.286;2022-07-17T11:38:51;1.90;;;1.80;;
13816;SDS011;6979;52.116;5.286;2022-07-17T11:41:19;1.90;;;1.77;;
13816;SDS011;6979;52.116;5.286;2022-07-17T11:43:47;1.70;;;1.60;;
13816;SDS011;6979;52.116;5.286;2022-07-17T11:46:14;2.00;;;1.90;;
13816;SDS011;6979;52.116;5.286;2022-07-17T11:48:42;2.37;;;2.23;;
13816;SDS011;6979;52.116;5.286;2022-07-17T11:51:10;2.33;;;2.13;;
13816;SDS011;6979;52.116;5.286;2022-07-17T11:53:38;2.40;;;2.20;;
13816;SDS011;6979;52.116;5.286;2022-07-17T11:56:05;2.10;;;2.00;;
13816;SDS011;6979;52.116;5.286;2022-07-17T11:58:43;2.17;;;2.07;;
13816;SDS011;6979;52.116;5.286;2022-07-17T12:01:12;2.40;;;2.30;;
13816;SDS011;6979;52.116;5.286;2022-07-17T12:03:40;2.60;;;2.50;;
13816;SDS011;6979;52.116;5.286;2022-07-17T12:06:07;2.80;;;2.60;;
13816;SDS011;6979;52.116;5.286;2022-07-17T12:08:34;2.40;;;2.30;;
13816;SDS011;6979;52.116;5.286;2022-07-17T12:11:03;2.47;;;2.37;;
13816;SDS011;6979;52.116;5.286;2022-07-17T12:13:41;2.67;;;2.57;;
13816;SDS011;6979;52.116;5.286;2022-07-17T12:19:07;2.30;;;2.20;;
13816;SDS011;6979;52.116;5.286;2022-07-17T12:21:46;2.37;;;2.23;;
13816;SDS011;6979;52.116;5.286;2022-07-17T12:24:18;2.13;;;2.03;;
13816;SDS011;6979;52.116;5.286;2022-07-17T12:26:46;2.07;;;1.97;;
13816;SDS011;6979;52.116;5.286;2022-07-17T12:29:14;2.40;;;2.30;;
13816;SDS011;6979;52.116;5.286;2022-07-17T12:31:42;1.83;;;1.77;;
13816;SDS011;6979;52.116;5.286;2022-07-17T12:34:09;2.20;;;2.10;;
13816;SDS011;6979;52.116;5.286;2022-07-17T12:36:36;2.40;;;2.13;;
13816;SDS011;6979;52.116;5.286;2022-07-17T12:39:03;2.43;;;2.33;;
13816;SDS011;6979;52.116;5.286;2022-07-17T12:41:30;2.20;;;2.10;;
13816;SDS011;6979;52.116;5.286;2022-07-17T12:43:57;2.03;;;1.93;;
13816;SDS011;6979;52.116;5.286;2022-07-17T12:46:24;2.60;;;2.50;;
13816;SDS011;6979;52.116;5.286;2022-07-17T12:48:52;2.70;;;2.60;;
13816;SDS011;6979;52.116;5.286;2022-07-17T12:51:19;2.03;;;1.93;;
13816;SDS011;6979;52.116;5.286;2022-07-17T12:53:46;2.33;;;2.23;;
13816;SDS011;6979;52.116;5.286;2022-07-17T12:56:13;2.40;;;2.20;;
13816;SDS011;6979;52.116;5.286;2022-07-17T12:58:39;2.40;;;2.30;;
13816;SDS011;6979;52.116;5.286;2022-07-17T13:01:06;2.17;;;2.07;;
13816;SDS011;6979;52.116;5.286;2022-07-17T13:03:33;2.47;;;2.37;;
13816;SDS011;6979;52.116;5.286;2022-07-17T13:06:02;2.20;;;2.10;;
13816;SDS011;6979;52.116;5.286;2022-07-17T13:08:30;2.27;;;2.17;;
13816;SDS011;6979;52.116;5.286;2022-07-17T13:10:58;2.73;;;2.63;;
13816;SDS011;6979;52.116;5.286;2022-07-17T13:13:24;2.80;;;2.70;;
13816;SDS011;6979;52.116;5.286;2022-07-17T13:15:51;2.90;;;2.70;;
13816;SDS011;6979;52.116;5.286;2022-07-17T13:18:18;3.03;;;2.83;;
13816;SDS011;6979;52.116;5.286;2022-07-17T13:20:45;3.10;;;2.90;;
13816;SDS011;6979;52.116;5.286;2022-07-17T13:23:14;3.27;;;3.07;;
13816;SDS011;6979;52.116;5.286;2022-07-17T13:25:41;3.37;;;3.17;;
13816;SDS011;6979;52.116;5.286;2022-07-17T13:28:09;3.43;;;3.13;;
13816;SDS011;6979;52.116;5.286;2022-07-17T13:30:36;3.80;;;3.60;;
13816;SDS011;6979;52.116;5.286;2022-07-17T13:33:03;3.77;;;3.57;;
13816;SDS011;6979;52.116;5.286;2022-07-17T13:35:30;3.57;;;3.37;;
13816;SDS011;6979;52.116;5.286;2022-07-17T13:37:57;3.50;;;3.30;;
13816;SDS011;6979;52.116;5.286;2022-07-17T13:40:28;3.90;;;3.70;;
13816;SDS011;6979;52.116;5.286;2022-07-17T13:42:55;3.47;;;3.27;;
13816;SDS011;6979;52.116;5.286;2022-07-17T13:45:22;3.30;;;3.10;;
13816;SDS011;6979;52.116;5.286;2022-07-17T13:47:49;3.67;;;3.47;;
13816;SDS011;6979;52.116;5.286;2022-07-17T13:50:16;3.90;;;3.60;;
13816;SDS011;6979;52.116;5.286;2022-07-17T13:52:42;3.47;;;3.27;;
13816;SDS011;6979;52.116;5.286;2022-07-17T13:55:09;4.57;;;4.27;;
13816;SDS011;6979;52.116;5.286;2022-07-17T13:57:38;3.97;;;3.60;;
13816;SDS011;6979;52.116;5.286;2022-07-17T14:00:05;4.30;;;4.00;;
13816;SDS011;6979;52.116;5.286;2022-07-17T14:02:35;3.80;;;3.60;;
13816;SDS011;6979;52.116;5.286;2022-07-17T14:05:03;3.90;;;3.70;;
13816;SDS011;6979;52.116;5.286;2022-07-17T14:07:31;3.77;;;3.47;;
13816;SDS011;6979;52.116;5.286;2022-07-17T14:09:59;3.60;;;3.40;;
13816;SDS011;6979;52.116;5.286;2022-07-17T14:12:26;4.13;;;3.83;;
13816;SDS011;6979;52.116;5.286;2022-07-17T14:14:54;3.53;;;3.33;;
13816;SDS011;6979;52.116;5.286;2022-07-17T14:17:21;4.00;;;3.70;;
13816;SDS011;6979;52.116;5.286;2022-07-17T14:19:47;4.73;;;4.40;;
13816;SDS011;6979;52.116;5.286;2022-07-17T14:22:14;4.83;;;4.53;;
13816;SDS011;6979;52.116;5.286;2022-07-17T14:24:41;4.40;;;4.10;;
13816;SDS011;6979;52.116;5.286;2022-07-17T14:27:08;4.32;;;4.03;;
13816;SDS011;6979;52.116;5.286;2022-07-17T14:29:34;5.65;;;5.22;;
13816;SDS011;6979;52.116;5.286;2022-07-17T14:32:03;5.97;;;5.57;;
13816;SDS011;6979;52.116;5.286;2022-07-17T14:34:30;5.90;;;5.50;;
13816;SDS011;6979;52.116;5.286;2022-07-17T14:36:57;5.67;;;5.27;;
13816;SDS011;6979;52.116;5.286;2022-07-17T14:39:24;5.47;;;5.17;;
13816;SDS011;6979;52.116;5.286;2022-07-17T14:41:51;5.40;;;5.10;;
13816;SDS011;6979;52.116;5.286;2022-07-17T14:44:17;6.10;;;5.70;;
13816;SDS011;6979;52.116;5.286;2022-07-17T14:46:44;5.83;;;5.33;;
13816;SDS011;6979;52.116;5.286;2022-07-17T14:49:13;5.63;;;5.23;;
13816;SDS011;6979;52.116;5.286;2022-07-17T14:51:40;5.87;;;5.47;;
13816;SDS011;6979;52.116;5.286;2022-07-17T14:54:07;4.63;;;4.33;;
13816;SDS011;6979;52.116;5.286;2022-07-17T14:56:34;5.23;;;4.93;;
13816;SDS011;6979;52.116;5.286;2022-07-17T14:59:00;4.47;;;4.20;;
13816;SDS011;6979;52.116;5.286;2022-07-17T15:01:27;4.60;;;4.30;;
13816;SDS011;6979;52.116;5.286;2022-07-17T15:03:54;4.70;;;4.40;;
13816;SDS011;6979;52.116;5.286;2022-07-17T15:06:22;5.80;;;5.40;;